createdAt,value
2023-05-25T00:01:22.831Z,20.79
2023-05-25T00:03:49.919Z,20.87
2023-05-25T00:06:16.791Z,20.82
2023-05-25T00:08:43.546Z,20.51
2023-05-25T00:11:10.267Z,20.21
2023-05-25T00:13:37.593Z,20.27
2023-05-25T00:16:04.907Z,20.51
2023-05-25T00:18:32.679Z,20.60
2023-05-25T00:20:59.411Z,20.54
2023-05-25T00:23:26.243Z,20.70
2023-05-25T00:25:56.084Z,20.69
2023-05-25T00:28:22.820Z,20.32
2023-05-25T00:30:49.873Z,20.41
2023-05-25T00:33:16.750Z,20.13
2023-05-25T00:35:44.262Z,20.51
2023-05-25T00:38:11.838Z,20.70
2023-05-25T00:40:39.562Z,20.73
2023-05-25T00:43:06.368Z,20.66
2023-05-25T00:45:33.462Z,20.66
2023-05-25T00:48:00.215Z,20.57
2023-05-25T00:50:27.037Z,20.53
2023-05-25T00:52:53.804Z,20.34
2023-05-25T00:55:21.037Z,20.29
2023-05-25T00:57:47.979Z,20.33
2023-05-25T01:00:14.785Z,20.44
2023-05-25T01:02:42.202Z,20.54
2023-05-25T01:05:09.391Z,20.49
2023-05-25T01:07:36.554Z,20.63
2023-05-25T01:10:03.389Z,20.71
2023-05-25T01:12:30.126Z,20.78
2023-05-25T01:14:58.098Z,20.77
2023-05-25T01:17:25.087Z,20.85
2023-05-25T01:20:09.017Z,20.90
2023-05-25T01:22:37.675Z,20.88
2023-05-25T01:25:04.429Z,20.81
2023-05-25T01:27:31.180Z,20.71
2023-05-25T01:29:58.116Z,20.65
2023-05-25T01:32:24.876Z,20.71
2023-05-25T01:34:51.632Z,20.66
2023-05-25T01:37:18.472Z,20.72
2023-05-25T01:39:45.234Z,20.71
2023-05-25T01:42:12.326Z,20.53
2023-05-25T01:44:39.146Z,20.55
2023-05-25T01:47:05.914Z,20.56
2023-05-25T01:49:32.728Z,20.55
2023-05-25T01:51:59.530Z,20.49
2023-05-25T01:54:27.436Z,20.50
2023-05-25T01:56:55.214Z,20.49
2023-05-25T01:59:25.529Z,20.47
2023-05-25T02:01:53.575Z,20.50
2023-05-25T02:04:20.578Z,20.49
2023-05-25T02:06:47.455Z,20.46
2023-05-25T02:09:15.230Z,20.43
2023-05-25T02:11:42.114Z,20.27
2023-05-25T02:14:08.929Z,20.26
2023-05-25T02:16:35.815Z,20.19
2023-05-25T02:19:02.670Z,20.24
2023-05-25T02:21:31.130Z,20.19
2023-05-25T02:24:03.317Z,20.22
2023-05-25T02:26:31.152Z,20.29
2023-05-25T02:28:58.946Z,20.21
2023-05-25T02:31:25.837Z,20.20
2023-05-25T02:33:54.151Z,20.20
2023-05-25T02:36:21.580Z,20.25
2023-05-25T02:38:48.655Z,20.16
2023-05-25T02:41:18.858Z,20.10
2023-05-25T02:43:45.705Z,20.05
2023-05-25T02:46:12.748Z,19.99
2023-05-25T02:48:39.989Z,19.95
2023-05-25T02:51:08.597Z,19.95
2023-05-25T02:53:35.350Z,19.70
2023-05-25T02:56:02.056Z,19.62
2023-05-25T02:58:29.417Z,19.63
2023-05-25T03:00:56.200Z,19.78
2023-05-25T03:03:23.116Z,19.75
2023-05-25T03:05:49.921Z,19.56
2023-05-25T03:08:18.529Z,19.51
2023-05-25T03:10:45.472Z,19.41
2023-05-25T03:13:13.497Z,19.41
2023-05-25T03:15:40.313Z,19.28
2023-05-25T03:18:07.173Z,19.32
2023-05-25T03:20:34.008Z,19.34
2023-05-25T03:23:00.947Z,19.21
2023-05-25T03:25:28.415Z,19.21
2023-05-25T03:27:57.648Z,19.22
2023-05-25T03:30:25.465Z,19.31
2023-05-25T03:32:52.179Z,19.25
2023-05-25T03:35:18.988Z,19.20
2023-05-25T03:37:45.870Z,19.28
2023-05-25T03:40:13.243Z,19.03
2023-05-25T03:42:40.061Z,18.99
2023-05-25T03:45:07.955Z,19.09
2023-05-25T03:47:35.779Z,19.27
2023-05-25T03:50:02.626Z,19.26
2023-05-25T03:52:29.466Z,19.28
2023-05-25T03:54:56.347Z,19.37
2023-05-25T03:57:23.137Z,19.41
2023-05-25T03:59:50.062Z,19.33
2023-05-25T04:02:17.288Z,19.10
2023-05-25T04:04:46.172Z,18.95
2023-05-25T04:07:14.270Z,18.99
2023-05-25T04:09:46.589Z,18.95
2023-05-25T04:12:20.667Z,19.22
2023-05-25T04:14:47.471Z,19.34
2023-05-25T04:17:14.471Z,19.43
2023-05-25T04:19:41.279Z,19.34
2023-05-25T04:22:14.253Z,19.39
2023-05-25T04:24:41.068Z,19.39
2023-05-25T04:27:08.237Z,19.48
2023-05-25T04:29:35.027Z,19.62
2023-05-25T04:32:01.983Z,19.69
2023-05-25T04:34:28.857Z,19.90
2023-05-25T04:36:57.234Z,20.10
2023-05-25T04:39:24.009Z,20.24
2023-05-25T04:41:50.791Z,20.13
2023-05-25T04:44:17.741Z,19.51
2023-05-25T04:46:45.536Z,19.54
2023-05-25T04:49:12.362Z,19.75
2023-05-25T04:51:39.164Z,19.96
2023-05-25T04:54:05.915Z,19.77
2023-05-25T04:56:32.960Z,19.82
2023-05-25T04:58:59.774Z,19.97
2023-05-25T05:01:26.715Z,20.19
2023-05-25T05:03:53.639Z,20.09
2023-05-25T05:06:20.643Z,19.99
2023-05-25T05:08:47.400Z,20.12
2023-05-25T05:11:18.008Z,20.22
2023-05-25T05:13:44.947Z,20.23
2023-05-25T05:16:11.788Z,20.28
2023-05-25T05:18:38.562Z,20.40
2023-05-25T05:21:05.310Z,20.60
2023-05-25T05:23:35.160Z,20.78
2023-05-25T05:26:01.915Z,21.20
2023-05-25T05:28:28.903Z,21.21
2023-05-25T05:30:55.666Z,21.33
2023-05-25T05:33:22.558Z,21.58
2023-05-25T05:35:50.743Z,21.52
2023-05-25T05:38:20.008Z,21.48
2023-05-25T05:40:46.853Z,21.67
2023-05-25T05:43:14.629Z,21.72
2023-05-25T05:45:41.410Z,21.90
2023-05-25T05:48:08.294Z,21.75
2023-05-25T05:50:35.522Z,22.27
2023-05-25T05:53:04.046Z,22.27
2023-05-25T05:55:35.121Z,22.14
2023-05-25T05:58:04.312Z,22.33
2023-05-25T06:00:31.281Z,22.46
2023-05-25T06:02:58.236Z,22.65
2023-05-25T06:05:25.885Z,22.93
2023-05-25T06:07:52.855Z,23.01
2023-05-25T06:10:19.657Z,22.98
2023-05-25T06:12:46.466Z,23.25
2023-05-25T06:15:14.329Z,23.43
2023-05-25T06:17:41.129Z,23.38
2023-05-25T06:20:08.006Z,23.39
2023-05-25T06:22:37.323Z,23.56
2023-05-25T06:25:05.125Z,23.78
2023-05-25T06:27:31.894Z,23.94
2023-05-25T06:29:59.651Z,23.99
2023-05-25T06:32:31.703Z,23.96
2023-05-25T06:34:58.686Z,23.72
2023-05-25T06:37:26.300Z,23.30
2023-05-25T06:39:54.887Z,23.39
2023-05-25T06:42:23.114Z,23.81
2023-05-25T06:44:55.913Z,24.21
2023-05-25T06:47:27.532Z,24.17
2023-05-25T06:49:55.399Z,24.32
2023-05-25T06:52:22.346Z,24.00
2023-05-25T06:54:49.193Z,23.16
2023-05-25T06:57:17.006Z,22.73
2023-05-25T06:59:43.838Z,23.09
2023-05-25T07:02:10.667Z,23.26
2023-05-25T07:04:37.505Z,22.18
2023-05-25T07:07:04.341Z,22.72
2023-05-25T07:09:31.472Z,22.86
2023-05-25T07:12:01.952Z,23.12
2023-05-25T07:14:28.966Z,23.80
2023-05-25T07:16:55.745Z,23.57
2023-05-25T07:19:22.535Z,22.96
2023-05-25T07:21:49.904Z,22.58
2023-05-25T07:24:17.784Z,23.48
2023-05-25T07:26:45.184Z,24.06
2023-05-25T07:29:12.533Z,23.89
2023-05-25T07:31:39.396Z,23.45
2023-05-25T07:34:07.843Z,23.22
2023-05-25T07:36:34.594Z,23.22
2023-05-25T07:39:02.290Z,23.26
2023-05-25T07:41:30.071Z,22.91
2023-05-25T07:43:57.340Z,23.38
2023-05-25T07:46:24.125Z,23.57
2023-05-25T07:48:51.501Z,23.24
2023-05-25T07:51:18.260Z,23.40
2023-05-25T07:53:45.088Z,23.53
2023-05-25T07:56:12.875Z,22.91
2023-05-25T07:58:39.659Z,22.98
2023-05-25T08:01:14.207Z,22.81
2023-05-25T08:06:14.688Z,22.65
2023-05-25T08:08:41.532Z,22.99
2023-05-25T08:11:08.288Z,23.13
2023-05-25T08:13:36.614Z,23.32
2023-05-25T08:16:03.421Z,23.55
2023-05-25T08:18:30.256Z,23.85
2023-05-25T08:20:57.246Z,23.99
2023-05-25T08:23:24.304Z,24.24
2023-05-25T08:25:52.184Z,23.82
2023-05-25T08:28:19.339Z,23.92
2023-05-25T08:30:46.221Z,24.04
2023-05-25T08:33:14.268Z,24.84
2023-05-25T08:35:41.069Z,25.40
2023-05-25T08:38:08.036Z,25.36
2023-05-25T08:40:34.775Z,25.82
2023-05-25T08:43:01.622Z,25.42
2023-05-25T08:48:00.762Z,25.20
2023-05-25T08:50:29.217Z,25.35
2023-05-25T08:52:56.050Z,24.63
2023-05-25T08:55:22.846Z,24.53
2023-05-25T08:57:49.555Z,24.00
2023-05-25T09:00:17.125Z,23.94
2023-05-25T09:02:46.322Z,24.57
2023-05-25T09:05:14.526Z,25.71
2023-05-25T09:07:41.341Z,25.98
2023-05-25T09:10:08.385Z,25.80
2023-05-25T09:12:35.670Z,25.99
2023-05-25T09:15:02.478Z,25.71
2023-05-25T09:17:29.246Z,26.02
2023-05-25T09:19:56.874Z,26.73
2023-05-25T09:22:23.760Z,26.89
2023-05-25T09:24:51.358Z,26.53
2023-05-25T09:27:18.182Z,26.03
2023-05-25T09:29:44.990Z,25.29
2023-05-25T09:32:12.777Z,25.12
2023-05-25T09:34:39.999Z,25.82
2023-05-25T09:37:06.829Z,26.28
2023-05-25T09:39:33.723Z,26.32
2023-05-25T09:42:00.646Z,26.64
2023-05-25T09:44:27.496Z,27.13
2023-05-25T09:46:54.298Z,27.84
2023-05-25T09:49:21.135Z,28.24
2023-05-25T09:51:48.279Z,28.46
2023-05-25T09:54:18.001Z,28.16
2023-05-25T09:56:44.960Z,27.28
2023-05-25T09:59:11.788Z,26.77
2023-05-25T10:01:38.621Z,26.48
2023-05-25T10:04:05.778Z,26.14
2023-05-25T10:06:32.583Z,27.23
2023-05-25T10:08:59.395Z,27.75
2023-05-25T10:11:26.163Z,28.56
2023-05-25T10:13:55.424Z,27.94
2023-05-25T10:16:22.164Z,27.87
2023-05-25T10:18:49.058Z,26.74
2023-05-25T10:21:17.176Z,26.48
2023-05-25T10:23:44.022Z,26.17
2023-05-25T10:26:23.972Z,26.80
2023-05-25T10:28:50.758Z,26.87
2023-05-25T10:31:21.126Z,26.66
2023-05-25T10:33:51.989Z,25.87
2023-05-25T10:36:19.410Z,26.03
2023-05-25T10:38:47.225Z,26.69
2023-05-25T10:41:14.051Z,26.82
2023-05-25T10:43:41.809Z,26.93
2023-05-25T10:46:08.656Z,26.83
2023-05-25T10:48:35.494Z,26.76
2023-05-25T10:51:04.601Z,26.93
2023-05-25T10:53:31.356Z,27.10
2023-05-25T10:55:59.486Z,28.03
2023-05-25T10:58:26.296Z,28.25
2023-05-25T11:00:53.356Z,27.41
2023-05-25T11:03:22.469Z,27.16
2023-05-25T11:05:49.297Z,27.15
2023-05-25T11:08:16.187Z,27.98
2023-05-25T11:10:45.188Z,27.64
2023-05-25T11:13:12.018Z,28.02
2023-05-25T11:15:40.018Z,28.55
2023-05-25T11:18:06.857Z,28.23
2023-05-25T11:20:34.538Z,28.16
2023-05-25T11:23:05.551Z,29.16
2023-05-25T11:25:33.200Z,29.01
2023-05-25T11:28:01.470Z,29.13
2023-05-25T11:30:28.608Z,29.84
2023-05-25T11:32:55.472Z,30.54
2023-05-25T11:35:22.322Z,30.80
2023-05-25T11:37:49.056Z,30.65
2023-05-25T11:40:17.126Z,30.82
2023-05-25T11:42:44.630Z,30.48
2023-05-25T11:45:12.425Z,30.04
2023-05-25T11:47:40.873Z,29.83
2023-05-25T11:50:07.923Z,28.56
2023-05-25T11:52:35.305Z,27.46
2023-05-25T11:55:02.129Z,28.14
2023-05-25T11:57:28.931Z,28.42
2023-05-25T11:59:56.299Z,27.82
2023-05-25T12:02:23.522Z,28.27
2023-05-25T12:04:50.539Z,28.66
2023-05-25T12:07:18.915Z,28.68
2023-05-25T12:09:49.679Z,28.79
2023-05-25T12:12:16.611Z,28.83
2023-05-25T12:14:43.422Z,29.68
2023-05-25T12:17:12.965Z,30.61
2023-05-25T12:19:39.898Z,30.75
2023-05-25T12:22:06.699Z,30.76
2023-05-25T12:24:33.598Z,30.10
2023-05-25T12:27:00.423Z,30.80
2023-05-25T12:29:27.244Z,31.29
2023-05-25T12:31:53.998Z,31.62
2023-05-25T12:34:21.030Z,31.25
2023-05-25T12:36:47.756Z,30.92
2023-05-25T12:39:15.626Z,31.06
2023-05-25T12:41:42.364Z,31.70
2023-05-25T12:44:09.126Z,31.86
2023-05-25T12:46:36.149Z,30.66
2023-05-25T12:49:03.049Z,29.99
2023-05-25T12:51:31.023Z,29.99
2023-05-25T12:53:58.073Z,29.66
2023-05-25T12:56:24.923Z,30.19
2023-05-25T12:58:54.259Z,30.51
2023-05-25T13:01:22.497Z,30.77
2023-05-25T13:03:49.393Z,31.43
2023-05-25T13:06:16.131Z,31.62
2023-05-25T13:08:42.932Z,30.87
2023-05-25T13:11:09.743Z,30.80
2023-05-25T13:13:37.514Z,31.47
2023-05-25T13:16:05.407Z,31.07
2023-05-25T13:18:32.174Z,30.13
2023-05-25T13:20:59.612Z,30.75
2023-05-25T13:23:29.041Z,30.99
2023-05-25T13:25:55.803Z,30.53
2023-05-25T13:28:22.573Z,31.15
2023-05-25T13:30:49.523Z,31.27
2023-05-25T13:33:20.554Z,31.39
2023-05-25T13:35:47.326Z,31.50
2023-05-25T13:38:16.546Z,31.84
2023-05-25T13:40:45.611Z,31.92
2023-05-25T13:43:15.366Z,32.02
2023-05-25T13:45:42.883Z,31.50
2023-05-25T13:48:09.970Z,31.28
2023-05-25T13:50:37.382Z,31.35
2023-05-25T13:53:04.355Z,32.08
2023-05-25T13:55:34.441Z,32.41
2023-05-25T13:58:01.977Z,31.74
2023-05-25T14:00:29.812Z,32.06
2023-05-25T14:02:56.842Z,31.12
2023-05-25T14:05:23.739Z,31.64
2023-05-25T14:07:53.321Z,32.31
2023-05-25T14:10:22.049Z,32.86
2023-05-25T14:12:49.189Z,32.04
2023-05-25T14:15:16.266Z,31.45
2023-05-25T14:17:43.297Z,32.04
2023-05-25T14:20:17.171Z,32.73
2023-05-25T14:22:44.103Z,32.98
2023-05-25T14:25:13.756Z,33.12
2023-05-25T14:27:40.579Z,33.04
2023-05-25T14:30:09.686Z,32.36
2023-05-25T14:32:36.694Z,32.51
2023-05-25T14:35:03.711Z,31.43
2023-05-25T14:37:30.639Z,30.56
2023-05-25T14:40:04.981Z,30.26
2023-05-25T14:42:32.091Z,30.23
2023-05-25T14:44:58.913Z,30.54
2023-05-25T14:47:27.178Z,29.97
2023-05-25T14:49:54.039Z,30.37
2023-05-25T14:52:21.150Z,30.69
2023-05-25T14:54:47.960Z,30.20
2023-05-25T14:57:14.694Z,29.95
2023-05-25T14:59:45.802Z,30.30
2023-05-25T15:02:12.615Z,30.85
2023-05-25T15:04:41.109Z,30.88
2023-05-25T15:07:08.111Z,30.73
2023-05-25T15:09:34.870Z,30.63
2023-05-25T15:12:01.660Z,30.43
2023-05-25T15:14:32.693Z,30.00
2023-05-25T15:16:59.659Z,30.08
2023-05-25T15:19:26.590Z,30.01
2023-05-25T15:21:54.682Z,29.69
2023-05-25T15:24:22.108Z,30.41
2023-05-25T15:26:48.922Z,31.04
2023-05-25T15:29:15.720Z,31.72
2023-05-25T15:31:43.610Z,32.35
2023-05-25T15:34:11.028Z,32.73
2023-05-25T15:36:38.164Z,32.76
2023-05-25T15:39:04.889Z,32.56
2023-05-25T15:41:31.628Z,31.46
2023-05-25T15:43:59.113Z,31.76
2023-05-25T15:46:27.031Z,31.40
2023-05-25T15:48:54.042Z,30.69
2023-05-25T15:51:20.748Z,30.66
2023-05-25T15:53:48.295Z,30.86
2023-05-25T15:56:15.125Z,30.41
2023-05-25T15:58:43.034Z,31.04
2023-05-25T16:01:11.292Z,31.34
2023-05-25T16:03:40.114Z,31.75
2023-05-25T16:06:07.081Z,31.43
2023-05-25T16:08:38.224Z,31.72
2023-05-25T16:11:05.209Z,32.14
2023-05-25T16:13:32.139Z,32.22
2023-05-25T16:15:58.977Z,32.49
2023-05-25T16:18:25.768Z,32.15
2023-05-25T16:20:52.534Z,31.55
2023-05-25T16:23:19.293Z,31.57
2023-05-25T16:25:47.328Z,30.61
2023-05-25T16:28:14.165Z,31.15
2023-05-25T16:30:41.446Z,31.41
2023-05-25T16:33:08.356Z,30.33
2023-05-25T16:35:43.610Z,29.65
2023-05-25T16:38:10.763Z,29.74
2023-05-25T16:40:38.597Z,29.44
2023-05-25T16:43:16.616Z,29.87
2023-05-25T16:45:44.700Z,29.86
2023-05-25T16:48:12.251Z,29.58
2023-05-25T16:50:39.279Z,29.27
2023-05-25T16:53:07.093Z,29.06
2023-05-25T16:55:33.923Z,28.73
2023-05-25T16:58:01.646Z,28.67
2023-05-25T17:00:28.416Z,29.05
2023-05-25T17:02:55.281Z,29.31
2023-05-25T17:05:24.616Z,29.58
2023-05-25T17:07:51.606Z,29.01
2023-05-25T17:10:18.500Z,28.26
2023-05-25T17:12:45.458Z,27.97
2023-05-25T17:15:12.785Z,28.24
2023-05-25T17:17:40.119Z,27.99
2023-05-25T17:20:06.993Z,27.89
2023-05-25T17:22:33.865Z,27.93
2023-05-25T17:25:01.250Z,27.93
2023-05-25T17:27:27.988Z,28.10
2023-05-25T17:29:54.749Z,28.11
2023-05-25T17:32:22.284Z,28.20
2023-05-25T17:34:50.068Z,27.90
2023-05-25T17:37:18.088Z,27.76
2023-05-25T17:39:50.109Z,27.93
2023-05-25T17:42:17.116Z,27.71
2023-05-25T17:44:44.555Z,27.60
2023-05-25T17:47:11.539Z,27.78
2023-05-25T17:49:48.775Z,27.73
2023-05-25T17:52:15.572Z,27.07
2023-05-25T17:54:45.470Z,26.33
2023-05-25T17:57:12.306Z,25.94
2023-05-25T17:59:40.097Z,25.63
2023-05-25T18:02:08.420Z,25.89
2023-05-25T18:04:35.222Z,25.55
2023-05-25T18:07:02.559Z,25.41
2023-05-25T18:09:29.371Z,25.36
2023-05-25T18:11:57.434Z,25.33
2023-05-25T18:14:26.238Z,25.73
2023-05-25T18:16:53.225Z,26.34
2023-05-25T18:19:21.028Z,26.52
2023-05-25T18:21:48.861Z,25.86
2023-05-25T18:24:16.648Z,25.88
2023-05-25T18:26:43.481Z,26.04
2023-05-25T18:29:10.233Z,26.29
2023-05-25T18:31:37.176Z,26.43
2023-05-25T18:34:04.764Z,26.42
2023-05-25T18:36:31.615Z,26.06
2023-05-25T18:38:58.326Z,26.30
2023-05-25T18:41:25.338Z,26.01
2023-05-25T18:43:53.575Z,25.77
2023-05-25T18:46:20.456Z,25.82
2023-05-25T18:48:47.298Z,25.68
2023-05-25T18:51:14.051Z,25.67
2023-05-25T18:53:40.860Z,25.57
2023-05-25T18:56:07.637Z,25.84
2023-05-25T18:58:34.460Z,25.82
2023-05-25T19:01:01.303Z,24.85
2023-05-25T19:03:28.279Z,24.63
2023-05-25T19:05:55.238Z,24.81
2023-05-25T19:08:21.988Z,25.11
2023-05-25T19:10:49.961Z,25.07
2023-05-25T19:13:16.782Z,25.05
2023-05-25T19:15:43.691Z,24.91
2023-05-25T19:18:10.660Z,24.57
2023-05-25T19:20:37.662Z,25.14
2023-05-25T19:23:05.101Z,25.38
2023-05-25T19:25:31.860Z,25.51
2023-05-25T19:27:58.722Z,25.74
2023-05-25T19:30:25.528Z,25.77
2023-05-25T19:32:52.418Z,25.68
2023-05-25T19:35:19.385Z,25.13
2023-05-25T19:37:51.248Z,25.41
2023-05-25T19:40:18.160Z,25.71
2023-05-25T19:42:44.933Z,25.91
2023-05-25T19:45:11.735Z,26.16
2023-05-25T19:47:38.525Z,26.11
2023-05-25T19:50:05.927Z,26.34
2023-05-25T19:52:33.611Z,26.52
2023-05-25T19:55:00.733Z,26.46
2023-05-25T19:57:27.563Z,26.40
2023-05-25T19:59:54.323Z,26.11
2023-05-25T20:02:21.080Z,26.00
2023-05-25T20:04:47.856Z,26.12
2023-05-25T20:07:14.695Z,26.07
2023-05-25T20:09:41.449Z,25.99
2023-05-25T20:12:08.779Z,25.71
2023-05-25T20:14:35.611Z,25.37
2023-05-25T20:17:03.014Z,25.12
2023-05-25T20:19:29.813Z,24.57
2023-05-25T20:21:58.159Z,24.78
2023-05-25T20:24:25.125Z,25.33
2023-05-25T20:26:52.248Z,25.45
2023-05-25T20:29:19.454Z,25.43
2023-05-25T20:31:47.352Z,25.48
2023-05-25T20:34:14.180Z,25.60
2023-05-25T20:36:41.611Z,25.73
2023-05-25T20:39:08.401Z,25.75
2023-05-25T20:41:35.212Z,25.69
2023-05-25T20:44:01.972Z,25.75
2023-05-25T20:46:30.954Z,25.74
2023-05-25T20:48:57.990Z,25.74
2023-05-25T20:51:24.769Z,25.81
2023-05-25T20:53:53.780Z,25.78
2023-05-25T20:56:21.557Z,25.68
2023-05-25T20:58:48.623Z,25.53
2023-05-25T21:01:15.414Z,25.44
2023-05-25T21:03:43.351Z,25.48
2023-05-25T21:06:11.364Z,25.45
2023-05-25T21:08:38.104Z,25.45
2023-05-25T21:11:06.086Z,25.26
2023-05-25T21:13:36.375Z,25.19
2023-05-25T21:16:03.423Z,25.25
2023-05-25T21:18:31.130Z,25.26
2023-05-25T21:20:57.999Z,25.33
2023-05-25T21:23:24.822Z,25.37
2023-05-25T21:25:51.650Z,25.29
2023-05-25T21:28:22.985Z,25.31
2023-05-25T21:30:49.915Z,25.30
2023-05-25T21:33:16.683Z,25.21
2023-05-25T21:35:43.769Z,25.19
2023-05-25T21:38:10.941Z,25.30
2023-05-25T21:40:37.988Z,25.40
2023-05-25T21:43:04.819Z,25.36
2023-05-25T21:45:34.247Z,25.15
2023-05-25T21:48:01.105Z,25.21
2023-05-25T21:50:27.874Z,25.38
2023-05-25T21:52:58.369Z,25.12
2023-05-25T21:55:25.193Z,25.13
2023-05-25T21:57:52.432Z,25.15
2023-05-25T22:00:20.280Z,25.22
2023-05-25T22:02:47.179Z,25.26
2023-05-25T22:05:14.180Z,25.33
2023-05-25T22:07:41.366Z,25.34
2023-05-25T22:10:08.114Z,25.15
2023-05-25T22:12:35.690Z,25.08
2023-05-25T22:15:03.937Z,24.99
2023-05-25T22:17:33.653Z,25.05
2023-05-25T22:22:32.341Z,24.98
2023-05-25T22:24:59.541Z,24.93
2023-05-25T22:27:26.924Z,24.91
2023-05-25T22:29:54.716Z,24.80
2023-05-25T22:32:23.721Z,24.72
2023-05-25T22:34:50.520Z,24.71
2023-05-25T22:37:17.357Z,24.62
2023-05-25T22:39:45.156Z,24.58
2023-05-25T22:42:13.209Z,24.44
2023-05-25T22:44:40.564Z,24.19
2023-05-25T22:47:07.364Z,24.23
2023-05-25T22:49:36.838Z,24.27
2023-05-25T22:52:04.517Z,24.23
2023-05-25T22:54:31.358Z,24.14
2023-05-25T22:57:02.725Z,24.02
2023-05-25T22:59:33.132Z,23.83
2023-05-25T23:02:01.688Z,23.63
2023-05-25T23:04:32.954Z,23.67
2023-05-25T23:07:00.738Z,23.73
2023-05-25T23:09:27.499Z,23.67
2023-05-25T23:11:54.267Z,23.50
2023-05-25T23:14:21.096Z,23.43
2023-05-25T23:16:47.913Z,23.40
2023-05-25T23:19:14.699Z,23.38
2023-05-25T23:21:41.536Z,23.45
2023-05-25T23:24:08.510Z,23.42
2023-05-25T23:26:36.309Z,23.42
2023-05-25T23:29:04.515Z,23.33
2023-05-25T23:31:31.807Z,23.18
2023-05-25T23:33:58.873Z,23.19
2023-05-25T23:36:26.684Z,23.21
2023-05-25T23:38:53.490Z,23.15
2023-05-25T23:41:20.257Z,23.16
2023-05-25T23:43:47.090Z,23.11
2023-05-25T23:46:15.470Z,23.12
2023-05-25T23:48:42.257Z,23.19
2023-05-25T23:51:09.096Z,23.21
2023-05-25T23:53:35.938Z,23.36
2023-05-25T23:56:02.772Z,23.30
2023-05-25T23:58:32.570Z,23.29
